sensor_id;sensor_type;location;lat;lon;timestamp;pressure;altitude;pressure_sealevel;temperature;humidity
47522;BME280;32291;52.010;4.446;2024-02-28T00:00:03;79088.34;;;-144.67;64.76
47522;BME280;32291;52.010;4.446;2024-02-28T00:01:10;79079.78;;;-144.67;64.56
47522;BME280;32291;52.010;4.446;2024-02-28T00:02:12;79088.34;;;-144.67;64.51
47522;BME280;32291;52.010;4.446;2024-02-28T00:03:14;79081.94;;;-144.67;64.34
47522;BME280;32291;52.010;4.446;2024-02-28T00:04:22;79075.50;;;-144.67;64.39
47522;BME280;32291;52.010;4.446;2024-02-28T00:05:24;79077.66;;;-144.67;64.50
47522;BME280;32291;52.010;4.446;2024-02-28T00:06:31;79084.06;;;-144.67;64.52
47522;BME280;32291;52.010;4.446;2024-02-28T00:07:38;79084.06;;;-144.67;64.70
47522;BME280;32291;52.010;4.446;2024-02-28T00:08:46;79084.06;;;-144.67;65.21
47522;BME280;32291;52.010;4.446;2024-02-28T00:09:53;79075.50;;;-144.67;65.63
47522;BME280;32291;52.010;4.446;2024-02-28T00:11:00;79071.22;;;-144.67;65.46
47522;BME280;32291;52.010;4.446;2024-02-28T00:12:08;79071.22;;;-144.67;65.08
47522;BME280;32291;52.010;4.446;2024-02-28T00:13:19;79062.66;;;-144.67;65.50
47522;BME280;32291;52.010;4.446;2024-02-28T00:14:26;79066.94;;;-144.67;65.17
47522;BME280;32291;52.010;4.446;2024-02-28T00:15:33;79060.50;;;-144.67;65.02
47522;BME280;32291;52.010;4.446;2024-02-28T00:16:44;79051.94;;;-144.67;65.09
47522;BME280;32291;52.010;4.446;2024-02-28T00:17:53;79058.38;;;-144.67;65.37
47522;BME280;32291;52.010;4.446;2024-02-28T00:18:58;79058.38;;;-144.67;65.12
47522;BME280;32291;52.010;4.446;2024-02-28T00:20:08;79049.81;;;-144.67;65.47
47522;BME280;32291;52.010;4.446;2024-02-28T00:21:16;79045.53;;;-144.67;65.35
47522;BME280;32291;52.010;4.446;2024-02-28T00:22:19;79049.81;;;-144.67;64.75
47522;BME280;32291;52.010;4.446;2024-02-28T00:23:25;79058.38;;;-144.67;64.69
47522;BME280;32291;52.010;4.446;2024-02-28T00:24:32;79062.66;;;-144.67;64.93
47522;BME280;32291;52.010;4.446;2024-02-28T00:25:34;79073.34;;;-144.67;64.87
47522;BME280;32291;52.010;4.446;2024-02-28T00:26:42;79069.06;;;-144.67;65.27
47522;BME280;32291;52.010;4.446;2024-02-28T00:27:49;79077.66;;;-144.67;64.88
47522;BME280;32291;52.010;4.446;2024-02-28T00:28:56;79088.34;;;-144.67;64.96
47522;BME280;32291;52.010;4.446;2024-02-28T00:29:59;79109.75;;;-144.67;65.53
47522;BME280;32291;52.010;4.446;2024-02-28T00:31:05;79114.06;;;-144.67;65.89
47522;BME280;32291;52.010;4.446;2024-02-28T00:32:14;79109.75;;;-144.67;66.03
47522;BME280;32291;52.010;4.446;2024-02-28T00:33:21;79101.19;;;-144.67;65.30
47522;BME280;32291;52.010;4.446;2024-02-28T00:34:23;79099.06;;;-144.67;65.20
47522;BME280;32291;52.010;4.446;2024-02-28T00:35:32;79111.91;;;-144.67;66.19
47522;BME280;32291;52.010;4.446;2024-02-28T00:36:42;79118.34;;;-144.67;65.56
47522;BME280;32291;52.010;4.446;2024-02-28T00:37:44;79122.63;;;-144.67;65.70
47522;BME280;32291;52.010;4.446;2024-02-28T00:38:51;79118.34;;;-144.67;65.36
47522;BME280;32291;52.010;4.446;2024-02-28T00:39:57;79122.63;;;-144.67;65.61
47522;BME280;32291;52.010;4.446;2024-02-28T00:41:04;79118.34;;;-144.67;65.60
47522;BME280;32291;52.010;4.446;2024-02-28T00:42:11;79114.06;;;-144.67;65.39
47522;BME280;32291;52.010;4.446;2024-02-28T00:43:13;79135.47;;;-144.67;65.70
47522;BME280;32291;52.010;4.446;2024-02-28T00:44:20;79139.75;;;-144.67;65.81
47522;BME280;32291;52.010;4.446;2024-02-28T00:45:22;79144.03;;;-144.67;66.65
47522;BME280;32291;52.010;4.446;2024-02-28T00:46:29;79148.31;;;-144.67;66.21
47522;BME280;32291;52.010;4.446;2024-02-28T00:47:35;79161.16;;;-144.67;66.16
47522;BME280;32291;52.010;4.446;2024-02-28T00:48:43;79169.72;;;-144.67;66.55
47522;BME280;32291;52.010;4.446;2024-02-28T00:49:50;79178.28;;;-144.67;66.45
47522;BME280;32291;52.010;4.446;2024-02-28T00:50:57;79171.88;;;-144.67;67.15
47522;BME280;32291;52.010;4.446;2024-02-28T00:52:04;79180.44;;;-144.67;67.02
47522;BME280;32291;52.010;4.446;2024-02-28T00:53:13;79189.00;;;-144.67;67.07
47522;BME280;32291;52.010;4.446;2024-02-28T00:54:20;79178.28;;;-144.67;67.68
47522;BME280;32291;52.010;4.446;2024-02-28T00:55:28;79184.72;;;-144.67;67.67
47522;BME280;32291;52.010;4.446;2024-02-28T00:56:35;79186.84;;;-144.67;67.94
47522;BME280;32291;52.010;4.446;2024-02-28T00:57:37;79184.72;;;-144.67;68.47
47522;BME280;32291;52.010;4.446;2024-02-28T00:58:47;79178.28;;;-144.67;69.05
47522;BME280;32291;52.010;4.446;2024-02-28T00:59:53;79178.28;;;-144.67;69.39
47522;BME280;32291;52.010;4.446;2024-02-28T01:01:01;79178.28;;;-144.67;69.79
47522;BME280;32291;52.010;4.446;2024-02-28T01:02:08;79163.31;;;-144.67;69.90
47522;BME280;32291;52.010;4.446;2024-02-28T01:03:15;79165.44;;;-144.67;69.53
47522;BME280;32291;52.010;4.446;2024-02-28T01:04:22;79148.31;;;-144.67;70.32
47522;BME280;32291;52.010;4.446;2024-02-28T01:05:24;79141.88;;;-144.67;70.24
47522;BME280;32291;52.010;4.446;2024-02-28T01:06:31;79141.88;;;-144.67;69.93
47522;BME280;32291;52.010;4.446;2024-02-28T01:07:40;79126.91;;;-144.67;70.35
47522;BME280;32291;52.010;4.446;2024-02-28T01:08:47;79126.91;;;-144.67;70.16
47522;BME280;32291;52.010;4.446;2024-02-28T01:09:54;79124.75;;;-144.67;70.21
47522;BME280;32291;52.010;4.446;2024-02-28T01:11:01;79126.91;;;-144.67;70.00
47522;BME280;32291;52.010;4.446;2024-02-28T01:12:08;79126.91;;;-144.67;69.98
47522;BME280;32291;52.010;4.446;2024-02-28T01:13:10;79122.63;;;-144.67;69.99
47522;BME280;32291;52.010;4.446;2024-02-28T01:14:16;79109.75;;;-144.67;69.51
47522;BME280;32291;52.010;4.446;2024-02-28T01:15:23;79109.75;;;-144.67;69.74
47522;BME280;32291;52.010;4.446;2024-02-28T01:16:30;79111.91;;;-144.67;69.63
47522;BME280;32291;52.010;4.446;2024-02-28T01:17:40;79111.91;;;-144.67;69.59
47522;BME280;32291;52.010;4.446;2024-02-28T01:18:43;79107.63;;;-144.67;69.37
47522;BME280;32291;52.010;4.446;2024-02-28T01:19:45;79111.91;;;-144.67;69.53
47522;BME280;32291;52.010;4.446;2024-02-28T01:20:53;79118.34;;;-144.67;69.81
47522;BME280;32291;52.010;4.446;2024-02-28T01:21:55;79135.47;;;-144.67;69.84
47522;BME280;32291;52.010;4.446;2024-02-28T01:23:02;79139.75;;;-144.67;70.61
47522;BME280;32291;52.010;4.446;2024-02-28T01:24:09;79144.03;;;-144.67;70.48
47522;BME280;32291;52.010;4.446;2024-02-28T01:25:11;79137.59;;;-144.67;71.30
47522;BME280;32291;52.010;4.446;2024-02-28T01:26:18;79129.03;;;-144.67;71.18
47522;BME280;32291;52.010;4.446;2024-02-28T01:27:28;79107.63;;;-144.67;70.16
47522;BME280;32291;52.010;4.446;2024-02-28T01:28:35;79092.63;;;-144.67;70.23
47522;BME280;32291;52.010;4.446;2024-02-28T01:29:41;79092.63;;;-144.67;70.21
47522;BME280;32291;52.010;4.446;2024-02-28T01:30:49;79084.06;;;-144.67;69.92
47522;BME280;32291;52.010;4.446;2024-02-28T01:31:56;79088.34;;;-144.67;69.66
47522;BME280;32291;52.010;4.446;2024-02-28T01:33:03;79084.06;;;-144.67;70.14
47522;BME280;32291;52.010;4.446;2024-02-28T01:34:10;79099.06;;;-144.67;70.19
47522;BME280;32291;52.010;4.446;2024-02-28T01:35:13;79105.47;;;-144.67;70.56
47522;BME280;32291;52.010;4.446;2024-02-28T01:36:20;79096.91;;;-144.67;70.95
47522;BME280;32291;52.010;4.446;2024-02-28T01:37:26;79109.75;;;-144.67;70.21
47522;BME280;32291;52.010;4.446;2024-02-28T01:38:33;79107.63;;;-144.67;70.99
47522;BME280;32291;52.010;4.446;2024-02-28T01:39:40;79101.19;;;-144.67;70.75
47522;BME280;32291;52.010;4.446;2024-02-28T01:40:47;79094.78;;;-144.67;70.36
47522;BME280;32291;52.010;4.446;2024-02-28T01:41:55;79088.34;;;-144.67;70.45
47522;BME280;32291;52.010;4.446;2024-02-28T01:43:11;79096.91;;;-144.67;70.87
47522;BME280;32291;52.010;4.446;2024-02-28T01:44:19;79088.34;;;-144.67;70.17
47522;BME280;32291;52.010;4.446;2024-02-28T01:45:26;79081.94;;;-144.67;70.03
47522;BME280;32291;52.010;4.446;2024-02-28T01:46:33;79077.66;;;-144.67;70.02
47522;BME280;32291;52.010;4.446;2024-02-28T01:47:41;79066.94;;;-144.67;70.16
47522;BME280;32291;52.010;4.446;2024-02-28T01:48:49;79062.66;;;-144.67;69.78
47522;BME280;32291;52.010;4.446;2024-02-28T01:49:56;79066.94;;;-144.67;70.30
47522;BME280;32291;52.010;4.446;2024-02-28T01:51:03;79058.38;;;-144.67;70.26
47522;BME280;32291;52.010;4.446;2024-02-28T01:52:11;79062.66;;;-144.67;69.69
47522;BME280;32291;52.010;4.446;2024-02-28T01:53:18;79049.81;;;-144.67;70.12
47522;BME280;32291;52.010;4.446;2024-02-28T01:54:21;79054.09;;;-144.67;69.69
47522;BME280;32291;52.010;4.446;2024-02-28T01:55:23;79051.94;;;-144.67;69.56
47522;BME280;32291;52.010;4.446;2024-02-28T01:56:26;79045.53;;;-144.67;69.62
47522;BME280;32291;52.010;4.446;2024-02-28T01:57:29;79049.81;;;-144.67;69.76
47522;BME280;32291;52.010;4.446;2024-02-28T01:58:32;79054.09;;;-144.67;69.88
47522;BME280;32291;52.010;4.446;2024-02-28T01:59:35;79047.66;;;-144.67;70.30
47522;BME280;32291;52.010;4.446;2024-02-28T02:00:42;79039.09;;;-144.67;69.87
47522;BME280;32291;52.010;4.446;2024-02-28T02:01:50;79039.09;;;-144.67;69.03
47522;BME280;32291;52.010;4.446;2024-02-28T02:02:57;79036.97;;;-144.67;69.52
47522;BME280;32291;52.010;4.446;2024-02-28T02:04:04;79028.38;;;-144.67;69.48
47522;BME280;32291;52.010;4.446;2024-02-28T02:05:11;79032.69;;;-144.67;69.19
47522;BME280;32291;52.010;4.446;2024-02-28T02:06:18;79039.09;;;-144.67;69.16
47522;BME280;32291;52.010;4.446;2024-02-28T02:07:25;79034.81;;;-144.67;69.33
47522;BME280;32291;52.010;4.446;2024-02-28T02:08:28;79032.69;;;-144.67;69.84
47522;BME280;32291;52.010;4.446;2024-02-28T02:09:31;79043.38;;;-144.67;69.33
47522;BME280;32291;52.010;4.446;2024-02-28T02:10:38;79039.09;;;-144.67;69.54
47522;BME280;32291;52.010;4.446;2024-02-28T02:11:45;79036.97;;;-144.67;69.95
47522;BME280;32291;52.010;4.446;2024-02-28T02:12:47;79039.09;;;-144.67;69.81
47522;BME280;32291;52.010;4.446;2024-02-28T02:13:54;79024.09;;;-144.67;69.60
47522;BME280;32291;52.010;4.446;2024-02-28T02:14:56;79011.25;;;-144.67;69.27
47522;BME280;32291;52.010;4.446;2024-02-28T02:16:03;79032.69;;;-144.67;69.29
47522;BME280;32291;52.010;4.446;2024-02-28T02:17:05;79026.25;;;-144.67;70.10
47522;BME280;32291;52.010;4.446;2024-02-28T02:18:15;79028.38;;;-144.67;69.95
47522;BME280;32291;52.010;4.446;2024-02-28T02:19:22;79043.38;;;-144.67;70.12
47522;BME280;32291;52.010;4.446;2024-02-28T02:20:32;79024.09;;;-144.67;70.09
47522;BME280;32291;52.010;4.446;2024-02-28T02:21:50;79019.81;;;-144.67;69.71
47522;BME280;32291;52.010;4.446;2024-02-28T02:22:54;79019.81;;;-144.67;69.20
47522;BME280;32291;52.010;4.446;2024-02-28T02:23:55;79017.69;;;-144.67;69.71
47522;BME280;32291;52.010;4.446;2024-02-28T02:24:57;79019.81;;;-144.67;69.59
47522;BME280;32291;52.010;4.446;2024-02-28T02:25:59;79015.53;;;-144.67;69.54
47522;BME280;32291;52.010;4.446;2024-02-28T02:27:02;79021.97;;;-144.67;70.29
47522;BME280;32291;52.010;4.446;2024-02-28T02:28:11;79011.25;;;-144.67;70.05
47522;BME280;32291;52.010;4.446;2024-02-28T02:29:18;79009.13;;;-144.67;69.93
47522;BME280;32291;52.010;4.446;2024-02-28T02:30:20;79036.97;;;-144.67;70.10
47522;BME280;32291;52.010;4.446;2024-02-28T02:31:27;79032.69;;;-144.67;70.32
47522;BME280;32291;52.010;4.446;2024-02-28T02:32:34;79041.25;;;-144.67;70.64
47522;BME280;32291;52.010;4.446;2024-02-28T02:33:40;79028.38;;;-144.67;70.49
47522;BME280;32291;52.010;4.446;2024-02-28T02:34:47;79019.81;;;-144.67;70.48
47522;BME280;32291;52.010;4.446;2024-02-28T02:35:49;79019.81;;;-144.67;70.10
47522;BME280;32291;52.010;4.446;2024-02-28T02:36:56;79021.97;;;-144.67;70.33
47522;BME280;32291;52.010;4.446;2024-02-28T02:38:03;79015.53;;;-144.67;69.93
47522;BME280;32291;52.010;4.446;2024-02-28T02:39:10;79009.13;;;-144.67;69.53
47522;BME280;32291;52.010;4.446;2024-02-28T02:40:17;79026.25;;;-144.67;69.40
47522;BME280;32291;52.010;4.446;2024-02-28T02:41:19;79034.81;;;-144.67;69.92
47522;BME280;32291;52.010;4.446;2024-02-28T02:42:26;79047.66;;;-144.67;70.59
47522;BME280;32291;52.010;4.446;2024-02-28T02:43:29;79041.25;;;-144.67;70.60
47522;BME280;32291;52.010;4.446;2024-02-28T02:44:36;79043.38;;;-144.67;70.47
47522;BME280;32291;52.010;4.446;2024-02-28T02:45:43;79058.38;;;-144.67;71.16
47522;BME280;32291;52.010;4.446;2024-02-28T02:46:48;79058.38;;;-144.67;70.72
47522;BME280;32291;52.010;4.446;2024-02-28T02:47:50;79045.53;;;-144.67;70.92
47522;BME280;32291;52.010;4.446;2024-02-28T02:48:56;79049.81;;;-144.67;71.66
47522;BME280;32291;52.010;4.446;2024-02-28T02:50:04;79049.81;;;-144.67;71.75
47522;BME280;32291;52.010;4.446;2024-02-28T02:51:11;79051.94;;;-144.67;71.63
47522;BME280;32291;52.010;4.446;2024-02-28T02:52:18;79058.38;;;-144.67;71.75
47522;BME280;32291;52.010;4.446;2024-02-28T02:53:25;79060.50;;;-144.67;72.76
47522;BME280;32291;52.010;4.446;2024-02-28T02:54:31;79058.38;;;-144.67;72.64
47522;BME280;32291;52.010;4.446;2024-02-28T02:55:38;79041.25;;;-144.67;72.38
47522;BME280;32291;52.010;4.446;2024-02-28T02:56:45;79041.25;;;-144.67;72.07
47522;BME280;32291;52.010;4.446;2024-02-28T02:57:52;79043.38;;;-144.67;72.95
47522;BME280;32291;52.010;4.446;2024-02-28T02:58:59;79032.69;;;-144.67;72.25
47522;BME280;32291;52.010;4.446;2024-02-28T03:00:01;79032.69;;;-144.67;72.61
47522;BME280;32291;52.010;4.446;2024-02-28T03:01:07;79021.97;;;-144.67;72.04
47522;BME280;32291;52.010;4.446;2024-02-28T03:02:15;79015.53;;;-144.67;71.85
47522;BME280;32291;52.010;4.446;2024-02-28T03:03:22;79030.53;;;-144.67;72.06
47522;BME280;32291;52.010;4.446;2024-02-28T03:04:28;79039.09;;;-144.67;73.01
47522;BME280;32291;52.010;4.446;2024-02-28T03:05:35;79028.38;;;-144.67;72.80
47522;BME280;32291;52.010;4.446;2024-02-28T03:06:42;79015.53;;;-144.67;72.26
47522;BME280;32291;52.010;4.446;2024-02-28T03:07:49;79015.53;;;-144.67;71.73
47522;BME280;32291;52.010;4.446;2024-02-28T03:08:55;79006.97;;;-144.67;72.02
47522;BME280;32291;52.010;4.446;2024-02-28T03:10:03;79013.41;;;-144.67;71.66
47522;BME280;32291;52.010;4.446;2024-02-28T03:11:09;79013.41;;;-144.67;72.19
47522;BME280;32291;52.010;4.446;2024-02-28T03:12:17;79019.81;;;-144.67;71.99
47522;BME280;32291;52.010;4.446;2024-02-28T03:13:19;78985.56;;;-144.67;71.44
47522;BME280;32291;52.010;4.446;2024-02-28T03:14:21;78983.41;;;-144.67;70.59
47522;BME280;32291;52.010;4.446;2024-02-28T03:15:30;78966.28;;;-144.67;70.88
47522;BME280;32291;52.010;4.446;2024-02-28T03:16:32;78959.88;;;-144.67;70.27
47522;BME280;32291;52.010;4.446;2024-02-28T03:17:39;78964.16;;;-144.67;70.14
47522;BME280;32291;52.010;4.446;2024-02-28T03:18:41;78968.44;;;-144.67;70.19
47522;BME280;32291;52.010;4.446;2024-02-28T03:19:47;78959.88;;;-144.67;69.55
47522;BME280;32291;52.010;4.446;2024-02-28T03:20:54;78953.44;;;-144.67;69.60
47522;BME280;32291;52.010;4.446;2024-02-28T03:22:01;78942.72;;;-144.67;70.12
47522;BME280;32291;52.010;4.446;2024-02-28T03:23:05;78944.88;;;-144.67;69.74
47522;BME280;32291;52.010;4.446;2024-02-28T03:24:13;78951.31;;;-144.67;70.13
47522;BME280;32291;52.010;4.446;2024-02-28T03:25:15;78966.28;;;-144.67;70.79
47522;BME280;32291;52.010;4.446;2024-02-28T03:26:17;78959.88;;;-144.67;70.17
47522;BME280;32291;52.010;4.446;2024-02-28T03:27:24;78955.59;;;-144.67;70.14
47522;BME280;32291;52.010;4.446;2024-02-28T03:28:31;78962.00;;;-144.67;70.36
47522;BME280;32291;52.010;4.446;2024-02-28T03:29:38;78968.44;;;-144.67;70.69
47522;BME280;32291;52.010;4.446;2024-02-28T03:30:44;78959.88;;;-144.67;70.85
47522;BME280;32291;52.010;4.446;2024-02-28T03:31:51;78989.84;;;-144.67;71.28
47522;BME280;32291;52.010;4.446;2024-02-28T03:32:53;78979.13;;;-144.67;71.82
47522;BME280;32291;52.010;4.446;2024-02-28T03:34:00;78974.84;;;-144.67;71.25
47522;BME280;32291;52.010;4.446;2024-02-28T03:35:07;78972.72;;;-144.67;71.53
47522;BME280;32291;52.010;4.446;2024-02-28T03:36:10;78959.88;;;-144.67;70.83
47522;BME280;32291;52.010;4.446;2024-02-28T03:37:12;78947.03;;;-144.67;71.16
47522;BME280;32291;52.010;4.446;2024-02-28T03:38:14;78951.31;;;-144.67;70.63
47522;BME280;32291;52.010;4.446;2024-02-28T03:39:16;78959.88;;;-144.67;70.99
47522;BME280;32291;52.010;4.446;2024-02-28T03:40:23;78959.88;;;-144.67;71.16
47522;BME280;32291;52.010;4.446;2024-02-28T03:41:31;78942.72;;;-144.67;71.00
47522;BME280;32291;52.010;4.446;2024-02-28T03:42:33;78932.03;;;-144.67;70.80
47522;BME280;32291;52.010;4.446;2024-02-28T03:43:35;78942.72;;;-144.67;70.87
47522;BME280;32291;52.010;4.446;2024-02-28T03:44:37;78972.72;;;-144.67;71.63
47522;BME280;32291;52.010;4.446;2024-02-28T03:45:39;78944.88;;;-144.67;70.91
47522;BME280;32291;52.010;4.446;2024-02-28T03:46:45;78938.44;;;-144.67;70.88
47522;BME280;32291;52.010;4.446;2024-02-28T03:47:52;78929.88;;;-144.67;69.95
47522;BME280;32291;52.010;4.446;2024-02-28T03:48:59;78942.72;;;-144.67;70.87
47522;BME280;32291;52.010;4.446;2024-02-28T03:50:06;78938.44;;;-144.67;70.82
47522;BME280;32291;52.010;4.446;2024-02-28T03:51:13;78934.16;;;-144.67;70.89
47522;BME280;32291;52.010;4.446;2024-02-28T03:52:20;78947.03;;;-144.67;71.11
47522;BME280;32291;52.010;4.446;2024-02-28T03:53:27;78942.72;;;-144.67;71.09
47522;BME280;32291;52.010;4.446;2024-02-28T03:54:30;78929.88;;;-144.67;70.67
47522;BME280;32291;52.010;4.446;2024-02-28T03:55:37;78934.16;;;-144.67;70.55
47522;BME280;32291;52.010;4.446;2024-02-28T03:56:39;78921.31;;;-144.67;70.20
47522;BME280;32291;52.010;4.446;2024-02-28T03:57:42;78925.59;;;-144.67;71.31
47522;BME280;32291;52.010;4.446;2024-02-28T03:58:51;78932.03;;;-144.67;70.62
47522;BME280;32291;52.010;4.446;2024-02-28T04:00:01;78934.16;;;-144.67;70.62
47522;BME280;32291;52.010;4.446;2024-02-28T04:01:03;78929.88;;;-144.67;70.87
47522;BME280;32291;52.010;4.446;2024-02-28T04:02:10;78947.03;;;-144.67;71.07
47522;BME280;32291;52.010;4.446;2024-02-28T04:03:17;78938.44;;;-144.67;70.97
47522;BME280;32291;52.010;4.446;2024-02-28T04:04:24;78921.31;;;-144.67;71.27
47522;BME280;32291;52.010;4.446;2024-02-28T04:05:31;78936.31;;;-144.67;71.30
47522;BME280;32291;52.010;4.446;2024-02-28T04:06:33;78936.31;;;-144.67;71.63
47522;BME280;32291;52.010;4.446;2024-02-28T04:07:40;78942.72;;;-144.67;71.26
47522;BME280;32291;52.010;4.446;2024-02-28T04:08:47;78947.03;;;-144.67;71.41
47522;BME280;32291;52.010;4.446;2024-02-28T04:09:54;78942.72;;;-144.67;71.68
47522;BME280;32291;52.010;4.446;2024-02-28T04:11:01;78934.16;;;-144.67;71.40
47522;BME280;32291;52.010;4.446;2024-02-28T04:12:09;78942.72;;;-144.67;71.21
47522;BME280;32291;52.010;4.446;2024-02-28T04:13:11;78944.88;;;-144.67;71.29
47522;BME280;32291;52.010;4.446;2024-02-28T04:14:13;78942.72;;;-144.67;71.59
47522;BME280;32291;52.010;4.446;2024-02-28T04:15:20;78949.16;;;-144.67;71.45
47522;BME280;32291;52.010;4.446;2024-02-28T04:16:22;78955.59;;;-144.67;71.23
47522;BME280;32291;52.010;4.446;2024-02-28T04:17:24;78947.03;;;-144.67;71.66
47522;BME280;32291;52.010;4.446;2024-02-28T04:18:26;78951.31;;;-144.67;71.19
47522;BME280;32291;52.010;4.446;2024-02-28T04:19:28;78938.44;;;-144.67;71.17
47522;BME280;32291;52.010;4.446;2024-02-28T04:20:35;78940.59;;;-144.67;71.47
47522;BME280;32291;52.010;4.446;2024-02-28T04:21:42;78938.44;;;-144.67;71.41
47522;BME280;32291;52.010;4.446;2024-02-28T04:22:48;78947.03;;;-144.67;71.37
47522;BME280;32291;52.010;4.446;2024-02-28T04:23:55;78934.16;;;-144.67;71.19
47522;BME280;32291;52.010;4.446;2024-02-28T04:25:04;78951.31;;;-144.67;71.13
47522;BME280;32291;52.010;4.446;2024-02-28T04:26:11;78951.31;;;-144.67;71.47
47522;BME280;32291;52.010;4.446;2024-02-28T04:27:18;78934.16;;;-144.67;70.62
47522;BME280;32291;52.010;4.446;2024-02-28T04:28:25;78917.03;;;-144.67;70.09
47522;BME280;32291;52.010;4.446;2024-02-28T04:29:32;78914.91;;;-144.67;70.19
47522;BME280;32291;52.010;4.446;2024-02-28T04:30:39;78908.47;;;-144.67;70.33
47522;BME280;32291;52.010;4.446;2024-02-28T04:31:46;78923.47;;;-144.67;70.22
47522;BME280;32291;52.010;4.446;2024-02-28T04:32:54;78917.03;;;-144.67;70.45
47522;BME280;32291;52.010;4.446;2024-02-28T04:34:00;78921.31;;;-144.67;70.69
47522;BME280;32291;52.010;4.446;2024-02-28T04:35:08;78947.03;;;-144.67;70.44
47522;BME280;32291;52.010;4.446;2024-02-28T04:36:16;78934.16;;;-144.67;70.75
47522;BME280;32291;52.010;4.446;2024-02-28T04:37:23;78953.44;;;-144.67;71.05
47522;BME280;32291;52.010;4.446;2024-02-28T04:38:30;78953.44;;;-144.67;71.23
47522;BME280;32291;52.010;4.446;2024-02-28T04:39:37;78940.59;;;-144.67;71.11
47522;BME280;32291;52.010;4.446;2024-02-28T04:40:44;78932.03;;;-144.67;70.50
47522;BME280;32291;52.010;4.446;2024-02-28T04:41:51;78938.44;;;-144.67;71.14
47522;BME280;32291;52.010;4.446;2024-02-28T04:42:58;78929.88;;;-144.67;70.60
47522;BME280;32291;52.010;4.446;2024-02-28T04:44:04;78921.31;;;-144.67;70.59
47522;BME280;32291;52.010;4.446;2024-02-28T04:45:08;78908.47;;;-144.67;70.22
47522;BME280;32291;52.010;4.446;2024-02-28T04:46:15;78917.03;;;-144.67;69.92
47522;BME280;32291;52.010;4.446;2024-02-28T04:47:22;78908.47;;;-144.67;70.57
47522;BME280;32291;52.010;4.446;2024-02-28T04:48:29;78908.47;;;-144.67;69.98
47522;BME280;32291;52.010;4.446;2024-02-28T04:49:37;78921.31;;;-144.67;69.97
47522;BME280;32291;52.010;4.446;2024-02-28T04:50:40;78917.03;;;-144.67;70.43
47522;BME280;32291;52.010;4.446;2024-02-28T04:51:48;78921.31;;;-144.67;70.61
47522;BME280;32291;52.010;4.446;2024-02-28T04:52:54;78917.03;;;-144.67;70.62
47522;BME280;32291;52.010;4.446;2024-02-28T04:54:02;78917.03;;;-144.67;70.65
47522;BME280;32291;52.010;4.446;2024-02-28T04:55:09;78929.88;;;-144.67;70.76
47522;BME280;32291;52.010;4.446;2024-02-28T04:56:16;78919.19;;;-144.67;71.04
47522;BME280;32291;52.010;4.446;2024-02-28T04:57:23;78908.47;;;-144.67;70.82
47522;BME280;32291;52.010;4.446;2024-02-28T04:58:30;78929.88;;;-144.67;70.79
47522;BME280;32291;52.010;4.446;2024-02-28T04:59:37;78925.59;;;-144.67;70.94
47522;BME280;32291;52.010;4.446;2024-02-28T05:00:44;78912.75;;;-144.67;70.38
47522;BME280;32291;52.010;4.446;2024-02-28T05:01:46;78921.31;;;-144.67;70.94
47522;BME280;32291;52.010;4.446;2024-02-28T05:02:53;78944.88;;;-144.67;71.94
47522;BME280;32291;52.010;4.446;2024-02-28T05:03:55;78917.03;;;-144.67;71.70
47522;BME280;32291;52.010;4.446;2024-02-28T05:05:02;78917.03;;;-144.67;71.16
47522;BME280;32291;52.010;4.446;2024-02-28T05:06:05;78919.19;;;-144.67;71.12
47522;BME280;32291;52.010;4.446;2024-02-28T05:07:12;78912.75;;;-144.67;71.27
47522;BME280;32291;52.010;4.446;2024-02-28T05:08:20;78934.16;;;-144.67;71.87
47522;BME280;32291;52.010;4.446;2024-02-28T05:09:27;78917.03;;;-144.67;71.41
47522;BME280;32291;52.010;4.446;2024-02-28T05:10:34;78921.31;;;-144.67;71.61
47522;BME280;32291;52.010;4.446;2024-02-28T05:11:41;78953.44;;;-144.67;72.07
47522;BME280;32291;52.010;4.446;2024-02-28T05:12:43;78921.31;;;-144.67;72.66
47522;BME280;32291;52.010;4.446;2024-02-28T05:13:45;78912.75;;;-144.67;72.30
47522;BME280;32291;52.010;4.446;2024-02-28T05:14:52;78906.34;;;-144.67;72.08
47522;BME280;32291;52.010;4.446;2024-02-28T05:15:54;78912.75;;;-144.67;72.40
47522;BME280;32291;52.010;4.446;2024-02-28T05:17:01;78932.03;;;-144.67;72.82
47522;BME280;32291;52.010;4.446;2024-02-28T05:18:08;78914.91;;;-144.67;72.11
47522;BME280;32291;52.010;4.446;2024-02-28T05:19:15;78895.63;;;-144.67;71.29
47522;BME280;32291;52.010;4.446;2024-02-28T05:20:20;78904.19;;;-144.67;71.66
47522;BME280;32291;52.010;4.446;2024-02-28T05:21:26;78912.75;;;-144.67;71.84
47522;BME280;32291;52.010;4.446;2024-02-28T05:22:34;78912.75;;;-144.67;71.69
47522;BME280;32291;52.010;4.446;2024-02-28T05:23:41;78908.47;;;-144.67;71.70
47522;BME280;32291;52.010;4.446;2024-02-28T05:24:46;78904.19;;;-144.67;71.51
47522;BME280;32291;52.010;4.446;2024-02-28T05:25:53;78917.03;;;-144.67;71.46
47522;BME280;32291;52.010;4.446;2024-02-28T05:27:00;78904.19;;;-144.67;71.58
47522;BME280;32291;52.010;4.446;2024-02-28T05:28:09;78899.91;;;-144.67;70.81
47522;BME280;32291;52.010;4.446;2024-02-28T05:29:16;78904.19;;;-144.67;71.00
47522;BME280;32291;52.010;4.446;2024-02-28T05:30:23;78906.34;;;-144.67;71.61
47522;BME280;32291;52.010;4.446;2024-02-28T05:31:28;78906.34;;;-144.67;71.69
47522;BME280;32291;52.010;4.446;2024-02-28T05:32:30;78902.03;;;-144.67;71.58
47522;BME280;32291;52.010;4.446;2024-02-28T05:33:32;78897.75;;;-144.67;71.49
47522;BME280;32291;52.010;4.446;2024-02-28T05:34:39;78914.91;;;-144.67;71.75
47522;BME280;32291;52.010;4.446;2024-02-28T05:35:46;78904.19;;;-144.67;71.16
47522;BME280;32291;52.010;4.446;2024-02-28T05:36:53;78908.47;;;-144.67;71.86
47522;BME280;32291;52.010;4.446;2024-02-28T05:38:00;78902.03;;;-144.67;71.84
47522;BME280;32291;52.010;4.446;2024-02-28T05:39:07;78891.34;;;-144.67;71.82
47522;BME280;32291;52.010;4.446;2024-02-28T05:40:15;78887.06;;;-144.67;71.17